createdAt,value
2023-05-05T00:01:16.226Z,94859.34
2023-05-05T00:03:43.002Z,94859.59
2023-05-05T00:06:09.868Z,94860.63
2023-05-05T00:08:36.489Z,94859.44
2023-05-05T00:11:03.346Z,94857.78
2023-05-05T00:13:30.031Z,94862.34
2023-05-05T00:15:56.749Z,94852.63
2023-05-05T00:18:23.670Z,94855.72
2023-05-05T00:20:50.634Z,94845.94
2023-05-05T00:23:17.664Z,94851.22
2023-05-05T00:25:44.411Z,94844.50
2023-05-05T00:28:11.157Z,94847.19
2023-05-05T00:30:40.119Z,94851.03
2023-05-05T00:33:06.953Z,94843.41
2023-05-05T00:35:33.743Z,94846.03
2023-05-05T00:38:00.441Z,94845.81
2023-05-05T00:40:27.128Z,94845.63
2023-05-05T00:42:54.076Z,94842.75
2023-05-05T00:45:20.816Z,94846.56
2023-05-05T00:47:55.406Z,94846.56
2023-05-05T00:50:22.853Z,94846.16
2023-05-05T00:52:49.956Z,94838.75
2023-05-05T00:55:17.139Z,94838.75
2023-05-05T00:57:44.729Z,94843.31
2023-05-05T01:00:12.169Z,94839.53
2023-05-05T01:02:39.670Z,94833.56
2023-05-05T01:05:08.383Z,94837.88
2023-05-05T01:07:43.922Z,94835.03
2023-05-05T01:10:30.536Z,94835.50
2023-05-05T01:13:00.249Z,94835.78
2023-05-05T01:15:46.642Z,94836.06
2023-05-05T01:18:16.309Z,94835.81
2023-05-05T01:21:07.768Z,94835.09
2023-05-05T01:24:08.358Z,94834.91
2023-05-05T01:26:51.498Z,94839.22
2023-05-05T01:29:43.050Z,94839.69
2023-05-05T01:32:22.269Z,94828.00
2023-05-05T01:34:54.694Z,94832.56
2023-05-05T01:37:53.736Z,94832.56
2023-05-05T01:40:25.146Z,94830.41
2023-05-05T01:42:54.221Z,94840.94
2023-05-05T01:45:23.568Z,94832.34
2023-05-05T01:47:52.528Z,94831.66
2023-05-05T01:50:19.898Z,94835.94
2023-05-05T01:52:47.532Z,94840.50
2023-05-05T01:55:17.560Z,94837.63
2023-05-05T01:57:46.693Z,94835.69
2023-05-05T02:00:16.856Z,94838.63
2023-05-05T02:02:47.680Z,94837.91
2023-05-05T02:05:17.004Z,94833.84
2023-05-05T02:07:45.505Z,94838.88
2023-05-05T02:10:13.789Z,94838.66
2023-05-05T02:12:42.865Z,94837.22
2023-05-05T02:15:10.771Z,94839.88
2023-05-05T02:17:40.583Z,94835.06
2023-05-05T02:20:09.389Z,94842.97
2023-05-05T02:22:36.159Z,94837.50
2023-05-05T02:25:03.433Z,94848.03
2023-05-05T02:27:32.654Z,94842.53
2023-05-05T02:30:03.042Z,94854.75
2023-05-05T02:32:37.743Z,94860.00
2023-05-05T02:35:12.607Z,94857.91
2023-05-05T02:37:43.978Z,94855.03
2023-05-05T02:40:11.985Z,94853.09
2023-05-05T02:42:44.869Z,94855.50
2023-05-05T02:45:15.482Z,94852.16
2023-05-05T02:47:42.088Z,94855.97
2023-05-05T02:50:09.515Z,94850.72
2023-05-05T02:52:36.458Z,94850.72
2023-05-05T02:55:04.501Z,94852.41
2023-05-05T02:58:00.545Z,94851.00
2023-05-05T03:00:55.737Z,94848.38
2023-05-05T03:03:30.970Z,94850.00
2023-05-05T03:06:29.791Z,94854.56
2023-05-05T03:09:19.503Z,94847.91
2023-05-05T03:12:01.258Z,94848.38
2023-05-05T03:14:33.281Z,94847.66
2023-05-05T03:17:01.401Z,94844.09
2023-05-05T03:19:29.818Z,94848.84
2023-05-05T03:21:58.161Z,94855.31
2023-05-05T03:24:24.762Z,94849.34
2023-05-05T03:26:51.339Z,94848.63
2023-05-05T03:29:17.913Z,94853.91
2023-05-05T03:31:44.719Z,94847.69
2023-05-05T03:34:11.479Z,94846.97
2023-05-05T03:36:38.943Z,94853.69
2023-05-05T03:39:05.680Z,94851.53
2023-05-05T03:41:32.329Z,94853.44
2023-05-05T03:43:59.047Z,94853.44
2023-05-05T03:46:25.992Z,94852.00
2023-05-05T03:48:52.667Z,94850.59
2023-05-05T03:51:19.383Z,94849.88
2023-05-05T03:53:46.667Z,94843.88
2023-05-05T03:56:13.380Z,94848.41
2023-05-05T03:58:39.904Z,94846.28
2023-05-05T04:01:06.511Z,94841.03
2023-05-05T04:03:33.145Z,94843.41
2023-05-05T04:06:00.350Z,94847.25
2023-05-05T04:08:26.958Z,94846.53
2023-05-05T04:10:53.621Z,94850.34
2023-05-05T04:13:20.229Z,94847.00
2023-05-05T04:15:47.022Z,94847.00
2023-05-05T04:18:13.629Z,94852.28
2023-05-05T04:20:40.358Z,94857.31
2023-05-05T04:23:06.931Z,94861.41
2023-05-05T04:25:34.018Z,94867.38
2023-05-05T04:28:00.924Z,94868.06
2023-05-05T04:30:27.505Z,94868.78
2023-05-05T04:32:54.162Z,94859.50
2023-05-05T04:35:20.909Z,94860.41
2023-05-05T04:37:47.507Z,94869.25
2023-05-05T04:40:14.133Z,94876.44
2023-05-05T04:42:40.696Z,94874.06
2023-05-05T04:45:08.922Z,94870.19
2023-05-05T04:47:39.342Z,94877.63
2023-05-05T04:50:07.391Z,94877.16
2023-05-05T04:52:34.401Z,94885.75
2023-05-05T04:55:01.260Z,94889.81
2023-05-05T04:57:27.846Z,94886.69
2023-05-05T04:59:54.508Z,94894.09
2023-05-05T05:02:21.256Z,94892.19
2023-05-05T05:04:48.072Z,94896.03
2023-05-05T05:07:15.164Z,94896.25
2023-05-05T05:09:41.735Z,94888.34
2023-05-05T05:12:09.684Z,94893.84
2023-05-05T05:14:37.985Z,94898.63
2023-05-05T05:17:05.200Z,94897.66
2023-05-05T05:19:31.836Z,94898.63
2023-05-05T05:21:58.431Z,94905.53
2023-05-05T05:24:25.468Z,94900.50
2023-05-05T05:26:52.083Z,94905.28
2023-05-05T05:29:20.331Z,94907.41
2023-05-05T05:31:46.962Z,94912.44
2023-05-05T05:34:13.567Z,94903.31
2023-05-05T05:36:40.151Z,94906.66
2023-05-05T05:39:06.756Z,94903.53
2023-05-05T05:41:33.278Z,94910.50
2023-05-05T05:43:59.857Z,94907.34
2023-05-05T05:46:26.426Z,94906.41
2023-05-05T05:48:53.288Z,94909.25
2023-05-05T05:51:19.831Z,94908.50
2023-05-05T05:53:46.385Z,94910.84
2023-05-05T05:56:12.932Z,94912.31
2023-05-05T05:58:40.900Z,94916.34
2023-05-05T06:01:07.470Z,94911.50
2023-05-05T06:03:34.611Z,94915.56
2023-05-05T06:06:01.366Z,94905.28
2023-05-05T06:08:28.231Z,94916.25
2023-05-05T06:10:54.776Z,94916.03
2023-05-05T06:13:21.562Z,94915.19
2023-05-05T06:15:48.319Z,94907.53
2023-05-05T06:18:15.009Z,94909.41
2023-05-05T06:20:43.401Z,94914.91
2023-05-05T06:23:10.020Z,94921.56
2023-05-05T06:25:36.649Z,94916.22
2023-05-05T06:28:04.331Z,94919.53
2023-05-05T06:30:30.974Z,94925.94
2023-05-05T06:32:57.543Z,94922.53
2023-05-05T06:35:24.861Z,94917.19
2023-05-05T06:37:51.393Z,94925.56
2023-05-05T06:40:18.131Z,94918.31
2023-05-05T06:42:44.784Z,94919.19
2023-05-05T06:45:11.661Z,94916.50
2023-05-05T06:47:38.243Z,94918.59
2023-05-05T06:50:06.549Z,94915.88
2023-05-05T06:52:33.279Z,94922.78
2023-05-05T06:54:59.776Z,94923.44
2023-05-05T06:57:26.806Z,94920.97
2023-05-05T06:59:54.045Z,94921.41
2023-05-05T07:02:20.978Z,94922.72
2023-05-05T07:04:47.731Z,94922.34
2023-05-05T07:07:14.311Z,94926.56
2023-05-05T07:09:41.463Z,94927.72
2023-05-05T07:12:08.020Z,94924.50
2023-05-05T07:14:34.570Z,94925.34
2023-05-05T07:17:01.232Z,94925.19
2023-05-05T07:19:27.890Z,94928.16
2023-05-05T07:21:54.660Z,94926.94
2023-05-05T07:24:21.264Z,94921.88
2023-05-05T07:26:47.950Z,94916.94
2023-05-05T07:29:14.545Z,94924.47
2023-05-05T07:31:41.266Z,94919.41
2023-05-05T07:34:07.832Z,94922.28
2023-05-05T07:36:34.408Z,94915.06
2023-05-05T07:39:01.027Z,94913.34
2023-05-05T07:41:27.544Z,94915.28
2023-05-05T07:43:54.081Z,94913.06
2023-05-05T07:46:20.801Z,94911.13
2023-05-05T07:48:47.409Z,94907.66
2023-05-05T07:51:14.020Z,94907.94
2023-05-05T07:53:41.121Z,94907.44
2023-05-05T07:56:08.820Z,94903.47
2023-05-05T07:58:35.460Z,94913.22
2023-05-05T08:01:02.802Z,94908.47
2023-05-05T08:03:29.607Z,94910.41
2023-05-05T08:05:56.567Z,94910.47
2023-05-05T08:08:24.973Z,94916.66
2023-05-05T08:10:53.032Z,94918.38
2023-05-05T08:13:20.002Z,94917.03
2023-05-05T08:15:46.808Z,94912.50
2023-05-05T08:18:14.467Z,94908.44
2023-05-05T08:20:41.074Z,94907.78
2023-05-05T08:23:07.640Z,94911.09
2023-05-05T08:25:34.252Z,94902.53
2023-05-05T08:28:00.917Z,94909.31
2023-05-05T08:30:27.703Z,94904.72
2023-05-05T08:32:55.184Z,94909.44
2023-05-05T08:35:22.174Z,94910.19
2023-05-05T08:37:48.875Z,94911.66
2023-05-05T08:40:15.738Z,94912.38
2023-05-05T08:42:42.937Z,94911.88
2023-05-05T08:45:11.094Z,94904.31
2023-05-05T08:47:39.090Z,94909.50
2023-05-05T08:50:06.453Z,94908.84
2023-05-05T08:52:40.463Z,94907.59
2023-05-05T08:55:26.841Z,94910.13
2023-05-05T08:57:57.035Z,94908.03
2023-05-05T09:00:24.770Z,94902.53
2023-05-05T09:02:51.915Z,94911.63
2023-05-05T09:05:18.543Z,94913.03
2023-05-05T09:07:46.747Z,94907.78
2023-05-05T09:10:14.769Z,94914.69
2023-05-05T09:12:41.633Z,94905.88
2023-05-05T09:15:12.997Z,94913.19
2023-05-05T09:17:40.642Z,94905.38
2023-05-05T09:20:09.241Z,94895.69
2023-05-05T09:22:54.021Z,94890.22
2023-05-05T09:25:20.643Z,94888.09
2023-05-05T09:27:49.355Z,94890.22
2023-05-05T09:30:18.410Z,94886.69
2023-05-05T09:32:50.637Z,94884.56
2023-05-05T09:35:18.525Z,94883.84
2023-05-05T09:37:45.615Z,94879.09
2023-05-05T09:40:16.917Z,94883.88
2023-05-05T09:42:44.859Z,94877.88
2023-05-05T09:45:17.710Z,94880.34
2023-05-05T09:47:48.839Z,94875.22
2023-05-05T09:50:18.653Z,94874.50
2023-05-05T09:53:02.614Z,94873.63
2023-05-05T09:55:31.349Z,94880.00
2023-05-05T09:58:24.137Z,94873.28
2023-05-05T10:00:51.062Z,94872.56
2023-05-05T10:03:17.983Z,94878.38
2023-05-05T10:05:51.972Z,94872.75
2023-05-05T10:08:23.822Z,94877.31
2023-05-05T10:10:51.742Z,94865.97
2023-05-05T10:13:23.630Z,94865.09
2023-05-05T10:15:55.431Z,94871.47
2023-05-05T10:18:23.368Z,94865.78
2023-05-05T10:21:03.837Z,94865.44
2023-05-05T10:23:39.229Z,94856.88
2023-05-05T10:26:07.064Z,94859.00
2023-05-05T10:28:37.351Z,94856.72
2023-05-05T10:31:16.457Z,94844.78
2023-05-05T10:34:00.238Z,94846.19
2023-05-05T10:36:28.028Z,94848.31
2023-05-05T10:38:59.930Z,94846.31
2023-05-05T10:41:31.015Z,94835.09
2023-05-05T10:43:59.629Z,94832.44
2023-05-05T10:46:28.739Z,94824.94
2023-05-05T10:49:17.094Z,94827.22
2023-05-05T10:51:52.902Z,94827.81
2023-05-05T10:54:45.380Z,94817.06
2023-05-05T10:57:12.291Z,94824.19
2023-05-05T10:59:39.613Z,94817.94
2023-05-05T11:02:29.378Z,94816.97
2023-05-05T11:05:12.237Z,94813.53
2023-05-05T11:07:39.129Z,94811.22
2023-05-05T11:10:07.696Z,94812.78
2023-05-05T11:13:02.620Z,94802.78
2023-05-05T11:15:29.524Z,94808.03
2023-05-05T11:17:59.885Z,94798.78
2023-05-05T11:20:35.833Z,94799.03
2023-05-05T11:23:02.419Z,94789.31
2023-05-05T11:25:35.417Z,94792.97
2023-05-05T11:28:06.668Z,94785.81
2023-05-05T11:30:33.292Z,94783.03
2023-05-05T11:33:37.739Z,94785.47
2023-05-05T11:36:07.151Z,94789.88
2023-05-05T11:38:52.372Z,94788.31
2023-05-05T11:41:42.098Z,94784.56
2023-05-05T11:44:12.492Z,94773.31
2023-05-05T11:47:02.884Z,94778.19
2023-05-05T11:49:33.379Z,94778.97
2023-05-05T11:52:02.352Z,94771.16
2023-05-05T11:54:29.528Z,94773.66
2023-05-05T11:57:08.513Z,94777.41
2023-05-05T11:59:37.309Z,94769.63
2023-05-05T12:02:04.498Z,94769.16
2023-05-05T12:04:31.663Z,94765.84
2023-05-05T12:06:59.886Z,94771.06
2023-05-05T12:09:27.274Z,94764.22
2023-05-05T12:11:58.439Z,94757.53
2023-05-05T12:14:25.808Z,94757.44
2023-05-05T12:17:16.921Z,94751.97
2023-05-05T12:20:01.368Z,94748.78
2023-05-05T12:22:28.119Z,94756.94
2023-05-05T12:24:55.105Z,94740.50
2023-05-05T12:27:21.877Z,94742.03
2023-05-05T12:29:48.743Z,94745.28
2023-05-05T12:32:24.657Z,94743.34
2023-05-05T12:34:57.329Z,94739.59
2023-05-05T12:37:25.582Z,94737.22
2023-05-05T12:39:52.604Z,94734.66
2023-05-05T12:42:19.318Z,94733.84
2023-05-05T12:44:46.769Z,94730.19
2023-05-05T12:47:14.526Z,94731.91
2023-05-05T12:49:51.621Z,94737.50
2023-05-05T12:52:19.056Z,94722.03
2023-05-05T12:54:59.657Z,94727.38
2023-05-05T12:57:26.580Z,94727.66
2023-05-05T12:59:53.743Z,94725.97
2023-05-05T13:02:20.992Z,94713.31
2023-05-05T13:04:52.321Z,94712.72
2023-05-05T13:07:20.776Z,94704.16
2023-05-05T13:09:51.617Z,94702.28
2023-05-05T13:12:18.634Z,94706.41
2023-05-05T13:14:46.489Z,94693.72
2023-05-05T13:17:14.387Z,94695.28
2023-05-05T13:19:46.535Z,94695.84
2023-05-05T13:22:13.872Z,94702.88
2023-05-05T13:24:50.494Z,94685.53
2023-05-05T13:27:18.940Z,94684.72
2023-05-05T13:29:46.137Z,94681.00
2023-05-05T13:32:12.850Z,94679.59
2023-05-05T13:34:39.640Z,94673.25
2023-05-05T13:37:06.604Z,94668.59
2023-05-05T13:39:33.319Z,94665.63
2023-05-05T13:41:59.907Z,94662.25
2023-05-05T13:44:26.562Z,94657.75
2023-05-05T13:46:53.157Z,94659.13
2023-05-05T13:49:20.201Z,94647.81
2023-05-05T13:51:47.309Z,94648.97
2023-05-05T13:54:14.146Z,94647.25
2023-05-05T13:56:40.817Z,94641.63
2023-05-05T13:59:07.705Z,94638.69
2023-05-05T14:01:34.491Z,94629.72
2023-05-05T14:04:03.673Z,94626.72
2023-05-05T14:06:32.770Z,94635.72
2023-05-05T14:08:59.710Z,94617.41
2023-05-05T14:11:26.399Z,94616.78
2023-05-05T14:13:53.089Z,94619.84
2023-05-05T14:16:19.654Z,94613.91
2023-05-05T14:18:46.305Z,94618.81
2023-05-05T14:21:12.876Z,94614.66
2023-05-05T14:23:39.466Z,94613.84
2023-05-05T14:26:06.112Z,94615.56
2023-05-05T14:28:32.776Z,94615.94
2023-05-05T14:30:59.351Z,94616.53
2023-05-05T14:33:26.252Z,94614.16
2023-05-05T14:35:52.982Z,94614.50
2023-05-05T14:38:19.682Z,94610.28
2023-05-05T14:41:18.821Z,94608.25
2023-05-05T14:43:50.016Z,94603.78
2023-05-05T14:46:16.685Z,94604.75
2023-05-05T14:48:43.513Z,94603.69
2023-05-05T14:51:10.051Z,94599.78
2023-05-05T14:53:36.646Z,94610.88
2023-05-05T14:56:03.302Z,94609.34
2023-05-05T14:58:32.673Z,94608.91
2023-05-05T15:01:00.597Z,94601.28
2023-05-05T15:03:27.341Z,94599.66
2023-05-05T15:05:54.005Z,94598.47
2023-05-05T15:08:20.633Z,94589.19
2023-05-05T15:10:47.263Z,94594.66
2023-05-05T15:13:14.170Z,94592.78
2023-05-05T15:15:41.202Z,94597.53
2023-05-05T15:18:07.866Z,94594.97
2023-05-05T15:20:34.689Z,94589.97
2023-05-05T15:23:01.598Z,94594.53
2023-05-05T15:25:28.319Z,94586.25
2023-05-05T15:27:54.999Z,94579.19
2023-05-05T15:30:21.625Z,94579.31
2023-05-05T15:32:48.215Z,94577.53
2023-05-05T15:35:14.820Z,94567.47
2023-05-05T15:37:42.594Z,94575.19
2023-05-05T15:40:09.728Z,94570.75
2023-05-05T15:42:36.588Z,94576.50
2023-05-05T15:45:04.586Z,94582.09
2023-05-05T15:47:31.247Z,94580.69
2023-05-05T15:49:57.820Z,94585.94
2023-05-05T15:52:24.379Z,94589.78
2023-05-05T15:54:50.943Z,94585.25
2023-05-05T15:57:17.504Z,94581.28
2023-05-05T15:59:44.542Z,94568.81
2023-05-05T16:02:11.448Z,94580.59
2023-05-05T16:04:38.016Z,94570.88
2023-05-05T16:07:04.587Z,94567.38
2023-05-05T16:09:31.156Z,94571.69
2023-05-05T16:11:57.694Z,94565.06
2023-05-05T16:14:24.494Z,94568.53
2023-05-05T16:16:55.034Z,94564.22
2023-05-05T16:19:23.372Z,94568.44
2023-05-05T16:21:49.968Z,94567.25
2023-05-05T16:24:16.725Z,94573.31
2023-05-05T16:26:44.431Z,94577.88
2023-05-05T16:29:11.337Z,94581.59
2023-05-05T16:31:38.091Z,94584.03
2023-05-05T16:34:04.831Z,94581.69
2023-05-05T16:36:31.845Z,94584.28
2023-05-05T16:38:58.423Z,94567.34
2023-05-05T16:41:27.868Z,94573.16
2023-05-05T16:43:54.656Z,94564.66
2023-05-05T16:46:21.293Z,94558.66
2023-05-05T16:48:47.869Z,94551.91
2023-05-05T16:51:14.476Z,94539.88
2023-05-05T16:53:41.083Z,94535.69
2023-05-05T16:56:11.168Z,94528.56
2023-05-05T16:58:37.806Z,94522.25
2023-05-05T17:01:04.626Z,94513.63
2023-05-05T17:03:31.174Z,94515.47
2023-05-05T17:05:58.206Z,94505.09
2023-05-05T17:08:24.820Z,94496.09
2023-05-05T17:10:51.453Z,94499.59
2023-05-05T17:13:18.184Z,94496.06
2023-05-05T17:15:44.853Z,94487.19
2023-05-05T17:18:11.514Z,94489.06
2023-05-05T17:20:38.061Z,94481.69
2023-05-05T17:23:05.153Z,94473.06
2023-05-05T17:25:31.871Z,94469.44
2023-05-05T17:27:58.543Z,94467.31
2023-05-05T17:30:25.368Z,94465.63
2023-05-05T17:32:52.528Z,94460.41
2023-05-05T17:35:19.289Z,94450.97
2023-05-05T17:37:45.917Z,94455.13
2023-05-05T17:40:12.657Z,94455.22
2023-05-05T17:42:39.314Z,94461.69
2023-05-05T17:45:06.725Z,94458.09
2023-05-05T17:47:33.579Z,94464.41
2023-05-05T17:50:00.343Z,94488.72
2023-05-05T17:52:27.047Z,94497.78
2023-05-05T17:54:53.686Z,94526.56
2023-05-05T17:57:23.010Z,94531.06
2023-05-05T17:59:50.144Z,94536.16
2023-05-05T18:02:16.988Z,94536.44
2023-05-05T18:04:43.691Z,94553.50
2023-05-05T18:07:12.220Z,94644.97
2023-05-05T18:09:39.111Z,94741.16
2023-05-05T18:12:05.961Z,94788.72
2023-05-05T18:14:32.638Z,94820.72
2023-05-05T18:16:59.197Z,94850.56
2023-05-05T18:19:25.823Z,94856.88
2023-05-05T18:21:54.538Z,94877.88
2023-05-05T18:24:21.150Z,94851.97
2023-05-05T18:26:52.295Z,94831.44
2023-05-05T18:29:19.958Z,94831.91
2023-05-05T18:31:51.662Z,94822.94
2023-05-05T18:34:19.485Z,94825.59
2023-05-05T18:36:46.816Z,94807.31
2023-05-05T18:39:14.107Z,94810.53
2023-05-05T18:41:41.032Z,94801.50
2023-05-05T18:44:07.962Z,94799.88
2023-05-05T18:46:34.837Z,94789.97
2023-05-05T18:49:01.835Z,94796.69
2023-05-05T18:51:28.787Z,94808.03
2023-05-05T18:53:55.508Z,94832.78
2023-05-05T18:56:22.241Z,94843.19
2023-05-05T18:58:49.081Z,94843.19
2023-05-05T19:01:16.381Z,94846.94
2023-05-05T19:03:48.065Z,94859.22
2023-05-05T19:06:15.482Z,94867.31
2023-05-05T19:08:42.905Z,94879.84
2023-05-05T19:11:09.766Z,94893.97
2023-05-05T19:16:02.987Z,94893.19
2023-05-05T19:18:29.583Z,94885.03
2023-05-05T19:20:56.179Z,94883.66
2023-05-05T19:23:22.718Z,94877.16
2023-05-05T19:25:52.584Z,94871.75
2023-05-05T19:28:19.615Z,94862.41
2023-05-05T19:30:49.063Z,94871.94
2023-05-05T19:33:16.297Z,94865.84
2023-05-05T19:35:43.907Z,94862.69
2023-05-05T19:38:10.977Z,94866.16
2023-05-05T19:40:38.894Z,94858.72
2023-05-05T19:43:06.000Z,94882.03
2023-05-05T19:45:35.647Z,94865.47
2023-05-05T19:48:02.579Z,94868.50
2023-05-05T19:50:30.609Z,94865.31
2023-05-05T19:52:57.974Z,94870.19
2023-05-05T19:55:24.754Z,94867.66
2023-05-05T19:57:51.427Z,94867.97
2023-05-05T20:00:18.712Z,94864.81
2023-05-05T20:02:45.693Z,94869.94
2023-05-05T20:05:16.386Z,94869.72
2023-05-05T20:07:43.923Z,94873.59
2023-05-05T20:10:13.127Z,94880.66
2023-05-05T20:12:42.469Z,94874.91
2023-05-05T20:15:10.514Z,94875.97
2023-05-05T20:17:37.121Z,94876.81
2023-05-05T20:20:04.016Z,94872.94
2023-05-05T20:22:30.988Z,94867.41
2023-05-05T20:24:58.255Z,94873.38
2023-05-05T20:27:26.551Z,94871.94
2023-05-05T20:29:53.921Z,94876.53
2023-05-05T20:32:20.686Z,94873.47
2023-05-05T20:34:48.182Z,94882.44
2023-05-05T20:37:14.907Z,94879.22
2023-05-05T20:39:43.702Z,94883.97
2023-05-05T20:42:10.906Z,94884.50
2023-05-05T20:44:37.758Z,94879.00
2023-05-05T20:47:04.732Z,94878.63
2023-05-05T20:49:31.474Z,94877.00
2023-05-05T20:51:58.731Z,94872.19
2023-05-05T20:54:25.326Z,94879.75
2023-05-05T20:56:53.174Z,94871.81
2023-05-05T20:59:19.712Z,94866.09
2023-05-05T21:01:46.424Z,94869.25
2023-05-05T21:04:13.017Z,94860.41
2023-05-05T21:06:39.623Z,94855.94
2023-05-05T21:09:06.856Z,94864.59
2023-05-05T21:11:33.446Z,94862.25
2023-05-05T21:14:00.045Z,94863.97
2023-05-05T21:16:26.740Z,94859.19
2023-05-05T21:18:53.442Z,94863.56
2023-05-05T21:21:20.056Z,94856.47
2023-05-05T21:23:47.554Z,94855.75
2023-05-05T21:26:14.142Z,94864.19
2023-05-05T21:28:41.430Z,94855.34
2023-05-05T21:31:21.278Z,94858.47
2023-05-05T21:33:48.769Z,94853.19
2023-05-05T21:36:17.482Z,94852.78
2023-05-05T21:38:44.029Z,94851.38
2023-05-05T21:41:10.718Z,94849.25
2023-05-05T21:43:37.250Z,94852.41
2023-05-05T21:46:05.571Z,94850.97
2023-05-05T21:48:32.673Z,94844.06
2023-05-05T21:50:59.625Z,94845.97
2023-05-05T21:53:26.404Z,94848.44
2023-05-05T21:55:53.001Z,94845.56
2023-05-05T21:58:19.720Z,94841.50
2023-05-05T22:00:49.588Z,94841.28
2023-05-05T22:03:16.373Z,94842.53
2023-05-05T22:05:43.036Z,94839.69
2023-05-05T22:08:09.608Z,94839.47
2023-05-05T22:10:36.227Z,94835.41
2023-05-05T22:13:02.865Z,94831.84
2023-05-05T22:15:32.977Z,94831.13
2023-05-05T22:18:09.737Z,94834.78
2023-05-05T22:20:37.170Z,94835.78
2023-05-05T22:23:07.296Z,94840.16
2023-05-05T22:25:33.921Z,94830.13
2023-05-05T22:28:03.778Z,94829.91
2023-05-05T22:30:30.475Z,94834.28
2023-05-05T22:32:57.231Z,94834.28
2023-05-05T22:35:24.033Z,94835.59
2023-05-05T22:37:50.731Z,94830.09
2023-05-05T22:40:17.484Z,94825.09
2023-05-05T22:42:44.107Z,94819.59
2023-05-05T22:45:11.316Z,94820.63
2023-05-05T22:47:38.091Z,94824.25
2023-05-05T22:50:05.220Z,94826.19
2023-05-05T22:52:31.932Z,94828.41
2023-05-05T22:54:58.487Z,94826.81
2023-05-05T22:57:25.222Z,94827.78
2023-05-05T22:59:51.873Z,94828.59
2023-05-05T23:02:18.393Z,94828.41
2023-05-05T23:04:45.308Z,94832.06
2023-05-05T23:07:12.628Z,94832.34
2023-05-05T23:09:39.265Z,94824.72
2023-05-05T23:12:06.098Z,94820.44
2023-05-05T23:14:32.694Z,94821.47
2023-05-05T23:16:59.446Z,94817.19
2023-05-05T23:19:26.417Z,94814.81
2023-05-05T23:21:53.844Z,94814.13
2023-05-05T23:24:21.454Z,94811.75
2023-05-05T23:26:48.037Z,94812.06
2023-05-05T23:29:14.732Z,94816.94
2023-05-05T23:31:41.259Z,94815.47
2023-05-05T23:34:07.821Z,94814.34
2023-05-05T23:36:34.479Z,94806.91
2023-05-05T23:39:01.050Z,94809.16
2023-05-05T23:41:27.591Z,94811.06
2023-05-05T23:43:54.193Z,94812.78
2023-05-05T23:46:20.774Z,94801.09
2023-05-05T23:48:47.431Z,94804.22
2023-05-05T23:51:14.050Z,94803.53
2023-05-05T23:53:40.668Z,94801.88
2023-05-05T23:56:07.808Z,94802.38
2023-05-05T23:58:34.535Z,94799.53
